Weather History for Superior, WI

Change the Weather History Date:

Thursday, February 14, 2013

  Actual Average Record
Temperature  
Mean Temperature 22 °F -  
Max Temperature 30 °F 24 °F 16 °F (2014)
Min Temperature 14 °F 6 °F -7 °F (2014)
Degree Days  
Heating Degree Days 43    
Moisture  
Dew Point 12 °F    
Average Humidity 64    
Maximum Humidity 91    
Minimum Humidity 38    
Precipitation  
Precipitation 0.00 in - - ()
Sea Level Pressure  
Sea Level Pressure 29.90 in    
Wind  
Wind Speed 6 mph (NNW)    
Max Wind Speed 17 mph    
Max Gust Speed 24 mph    
Visibility 10 miles    
Events      
Averages and records for this station are not official NWS values.
T = Trace of Precipitation, MM = Missing Value Source: NWS Daily Summary

Daily Weather History Graph

Daily Weather History Graph

Search for Another Location

Airport:

Trip Planner

Search our weather history database for the weather conditions in past years. The results will help you decide how hot, cold, wet, or windy it might be!

Date:

Astronomy

Feb. 14, 2013 Rise Set
Actual Time 7:13 AM CST 5:32 PM CST
Civil Twilight 6:42 AM CST 6:03 PM CST
Nautical Twilight 6:06 AM CST 6:39 PM CST
Astronomical Twilight 5:31 AM CST 7:14 PM CST
Moon 8:55 AM CST (2/14) 10:58 PM CST (2/14)
Length of Visible Light 11h 21m
Length of Day
10h 18m
Waxing Crescent, 22% of the Moon is Illuminated
Feb 14
Waxing Crescent
Feb 17
First Quarter
Feb 25
Full
Mar 4
Last Quarter
Mar 11
New

Hourly Weather History & Observations

Time (CST) Temp. Windchill Dew Point Humidity Pressure Visibility Wind Dir Wind Speed Gust Speed Precip Events Conditions
12:15 AM 30.0 °F 25.2 °F 25.2 °F 82% 29.67 in 10.0 mi NE 4.6 mph - N/A   Overcast
12:35 AM 29.1 °F - 25.0 °F 85% 29.67 in 10.0 mi Calm Calm - N/A   Overcast
12:55 AM 28.2 °F - 24.8 °F 87% 29.67 in 10.0 mi Calm Calm - N/A   Overcast
1:15 AM 28.8 °F - 25.5 °F 88% 29.67 in 10.0 mi Calm Calm - N/A   Overcast
1:35 AM 26.1 °F - 23.7 °F 91% 29.68 in 10.0 mi Calm Calm - N/A   Overcast
1:55 AM 28.0 °F - 24.4 °F 86% 29.68 in 10.0 mi Calm Calm - N/A   Overcast
2:15 AM 28.2 °F - 24.6 °F 86% 29.69 in 10.0 mi Calm Calm - N/A   Overcast
2:35 AM 27.7 °F 21.3 °F 23.9 °F 86% 29.69 in 10.0 mi NNW 5.8 mph - N/A   Overcast
2:55 AM 26.4 °F 19.8 °F 22.6 °F 86% 29.69 in 10.0 mi NNW 5.8 mph - N/A   Overcast
3:15 AM 26.6 °F 19.1 °F 22.5 °F 84% 29.69 in 10.0 mi NNW 6.9 mph - N/A   Overcast
3:35 AM 27.1 °F 20.7 °F 22.6 °F 83% 29.70 in 10.0 mi NW 5.8 mph - N/A   Overcast
3:55 AM 27.0 °F 21.6 °F 22.6 °F 84% 29.70 in 10.0 mi NW 4.6 mph - N/A   Overcast
4:15 AM 27.5 °F - 22.8 °F 83% 29.70 in 10.0 mi Calm Calm - N/A   Overcast
4:35 AM 28.4 °F 24.6 °F 23.0 °F 80% 29.71 in 10.0 mi NE 3.5 mph - N/A   Overcast
4:55 AM 28.4 °F - 23.0 °F 80% 29.71 in 10.0 mi Calm Calm - N/A   Overcast
5:15 AM 27.3 °F 23.4 °F 23.0 °F 84% 29.72 in 10.0 mi NW 3.5 mph - N/A   Overcast
5:35 AM 27.1 °F 20.7 °F 22.5 °F 83% 29.73 in 10.0 mi NW 5.8 mph - N/A   Overcast
5:55 AM 27.5 °F 20.2 °F 22.1 °F 80% 29.73 in 10.0 mi NNW 6.9 mph - N/A   Overcast
6:15 AM 26.8 °F 19.3 °F 22.3 °F 83% 29.74 in 10.0 mi NNW 6.9 mph - N/A   Overcast
6:35 AM 26.6 °F 20.0 °F 22.3 °F 84% 29.74 in 10.0 mi NNW 5.8 mph - N/A   Overcast
6:55 AM 25.2 °F 15.7 °F 21.2 °F 85% 29.76 in 10.0 mi NNW 9.2 mph - N/A   Scattered Clouds
7:15 AM 24.6 °F 15.8 °F 21.4 °F 87% 29.77 in 10.0 mi North 8.1 mph - N/A   Mostly Cloudy
7:35 AM 24.8 °F 15.3 °F 21.6 °F 87% 29.78 in 10.0 mi NNW 9.2 mph - N/A   Overcast
7:55 AM 25.0 °F 16.3 °F 20.3 °F 82% 29.79 in 10.0 mi North 8.1 mph - N/A   Overcast
8:15 AM 25.7 °F 18.0 °F 20.3 °F 80% 29.80 in 10.0 mi North 6.9 mph - N/A   Overcast
8:35 AM 26.6 °F 18.2 °F 20.8 °F 79% 29.81 in 10.0 mi North 8.1 mph - N/A   Overcast
8:55 AM 26.6 °F 17.5 °F 20.3 °F 77% 29.81 in 10.0 mi North 9.2 mph 17.3 mph N/A   Overcast
9:15 AM 26.6 °F 16.8 °F 20.1 °F 77% 29.82 in 10.0 mi North 10.4 mph - N/A   Overcast
9:35 AM 26.2 °F 15.8 °F 19.0 °F 74% 29.83 in 10.0 mi North 11.5 mph - N/A   Overcast
9:55 AM 24.3 °F 10.8 °F 16.5 °F 72% 29.84 in 10.0 mi NNW 17.3 mph 24.2 mph N/A   Mostly Cloudy
10:15 AM 22.8 °F 10.9 °F 14.9 °F 72% 29.86 in 10.0 mi North 12.7 mph 17.3 mph N/A   Scattered Clouds
10:35 AM 21.0 °F 8.1 °F 11.1 °F 66% 29.87 in 10.0 mi North 13.8 mph 20.7 mph N/A   Scattered Clouds
10:55 AM 21.2 °F 14.9 °F 10.9 °F 65% 29.88 in 10.0 mi North 4.6 mph - N/A   Scattered Clouds
11:15 AM 21.4 °F 11.9 °F 10.4 °F 63% 29.89 in 10.0 mi NNE 8.1 mph - N/A   Scattered Clouds
11:35 AM 22.8 °F 12.2 °F 10.4 °F 59% 29.89 in 10.0 mi NNW 10.4 mph 19.6 mph N/A   Clear
11:55 AM 22.6 °F 15.3 °F 9.3 °F 57% 29.90 in 10.0 mi North 5.8 mph - N/A   Clear
12:15 PM 22.6 °F 11.3 °F 9.5 °F 57% 29.91 in 10.0 mi NNW 11.5 mph 18.4 mph N/A   Clear
12:35 PM 23.2 °F 12.6 °F 8.6 °F 54% 29.91 in 10.0 mi NNW 10.4 mph 18.4 mph N/A   Clear
12:55 PM 22.6 °F 10.1 °F 7.7 °F 53% 29.92 in 10.0 mi NNW 13.8 mph 17.3 mph N/A   Clear
1:15 PM 21.9 °F 9.2 °F 4.8 °F 48% 29.93 in 10.0 mi North 13.8 mph 20.7 mph N/A   Clear
1:35 PM 21.9 °F 11.7 °F 4.8 °F 48% 29.93 in 10.0 mi North 9.2 mph 16.1 mph N/A   Clear
1:55 PM 22.5 °F 11.1 °F 5.4 °F 48% 29.94 in 10.0 mi NNW 11.5 mph 16.1 mph N/A   Clear
2:15 PM 22.3 °F 12.2 °F 5.0 °F 48% 29.94 in 10.0 mi NNW 9.2 mph 18.4 mph N/A   Clear
2:35 PM 22.5 °F 12.4 °F 5.0 °F 47% 29.96 in 10.0 mi North 9.2 mph 21.9 mph N/A   Clear
2:55 PM 23.0 °F 11.7 °F 2.5 °F 41% 29.96 in 10.0 mi NNE 11.5 mph 21.9 mph N/A   Clear
3:15 PM 23.7 °F 17.8 °F 2.8 °F 41% 29.97 in 10.0 mi North 4.6 mph - N/A   Clear
3:35 PM 23.4 °F 12.2 °F 5.5 °F 47% 29.98 in 10.0 mi NNW 11.5 mph 16.1 mph N/A   Clear
3:55 PM 23.4 °F 11.1 °F 3.9 °F 43% 29.99 in 10.0 mi North 13.8 mph 18.4 mph N/A   Clear
4:15 PM 23.4 °F 13.5 °F 0.9 °F 38% 30.00 in 10.0 mi North 9.2 mph - N/A   Clear
4:35 PM 23.0 °F 13.1 °F 0.5 °F 38% 30.01 in 10.0 mi North 9.2 mph 16.1 mph N/A   Clear
4:55 PM 22.8 °F 12.2 °F 1.6 °F 40% 30.02 in 10.0 mi North 10.4 mph 16.1 mph N/A   Mostly Cloudy
5:15 PM 21.4 °F 9.7 °F 3.2 °F 46% 30.04 in 10.0 mi NNW 11.5 mph - N/A   Scattered Clouds
5:35 PM 21.2 °F 10.1 °F 2.5 °F 44% 30.04 in 10.0 mi NNW 10.4 mph 17.3 mph N/A   Mostly Cloudy
5:55 PM 20.7 °F 8.8 °F 2.3 °F 45% 30.06 in 10.0 mi North 11.5 mph - N/A   Scattered Clouds
6:15 PM 20.7 °F 11.0 °F 1.9 °F 44% 30.07 in 10.0 mi NNW 8.1 mph - N/A   Clear
6:35 PM 20.3 °F 10.6 °F 1.8 °F 45% 30.07 in 10.0 mi NNW 8.1 mph - N/A   Scattered Clouds
6:55 PM 19.8 °F 8.3 °F 1.9 °F 46% 30.07 in 10.0 mi NNW 10.4 mph 17.3 mph N/A   Mostly Cloudy
7:15 PM 20.1 °F 6.9 °F 1.2 °F 44% 30.08 in 10.0 mi NNW 13.8 mph 21.9 mph N/A   Scattered Clouds
7:35 PM 19.4 °F 6.6 °F 1.8 °F 46% 30.08 in 10.0 mi North 12.7 mph 20.7 mph N/A   Mostly Cloudy
7:55 PM 19.4 °F 8.6 °F 2.1 °F 47% 30.09 in 10.0 mi North 9.2 mph - N/A   Overcast
8:15 PM 19.4 °F 11.5 °F 1.4 °F 46% 30.10 in 10.0 mi NNW 5.8 mph - N/A   Overcast
8:35 PM 18.0 °F 11.1 °F 1.0 °F 48% 30.11 in 10.0 mi NNW 4.6 mph - N/A   Scattered Clouds
8:55 PM 18.3 °F 11.5 °F 0.9 °F 47% 30.11 in 10.0 mi North 4.6 mph - N/A   Clear
9:15 PM 16.9 °F 9.8 °F 0.3 °F 48% 30.11 in 10.0 mi NNW 4.6 mph - N/A   Clear
9:35 PM 16.7 °F 9.6 °F 0.3 °F 49% 30.11 in 10.0 mi NNW 4.6 mph - N/A   Scattered Clouds
9:55 PM 16.2 °F 9.0 °F 1.8 °F 53% 30.12 in 10.0 mi NNW 4.6 mph - N/A   Overcast
10:15 PM 15.6 °F 8.3 °F 1.8 °F 54% 30.12 in 10.0 mi WNW 4.6 mph - N/A   Overcast
10:35 PM 15.4 °F 6.8 °F 2.5 °F 57% 30.12 in 10.0 mi WNW 5.8 mph - N/A   Overcast
10:55 PM 16.2 °F 7.6 °F 3.0 °F 56% 30.13 in 10.0 mi WNW 5.8 mph - N/A   Overcast
11:15 PM 15.8 °F 7.2 °F 2.7 °F 56% 30.13 in 10.0 mi WNW 5.8 mph - N/A   Overcast
11:35 PM 14.9 °F 5.0 °F 2.8 °F 59% 30.13 in 10.0 mi WNW 6.9 mph - N/A   Overcast
11:55 PM 14.7 °F 3.8 °F 2.1 °F 57% 30.13 in 10.0 mi NW 8.1 mph - N/A   Overcast